Time;durP1;ratioP1;P1;durP2;ratioP2;P2;SDS_P1;SDS_P2;PMS_P1;PMS_P2;Temp;Humidity;BMP_temperature;BMP_pressure;BME280_temperature;BME280_humidity;BME280_pressure;Samples;Min_cycle;Max_cycle;Signal;HPM_P1;HPM_P2
2022/09/17 00:01:07;;;;;;;;;;;;;;;;;;5016509;28;8398;-84
2022/09/17 00:03:33;;;;;;;;;;;;;;;;;;5016752;28;8605;-85
2022/09/17 00:06:05;;;;;;;;;;;;;;;;;;5017089;28;7131;-86
2022/09/17 00:08:32;;;;;;;;;;;;;;;;;;5016380;28;7023;-85
2022/09/17 00:10:57;;;;;;;;;;;;;;;;;;5016325;28;7048;-85
2022/09/17 00:13:23;;;;;;;;;;;;;;;;;;5016448;28;8717;-85
2022/09/17 00:15:50;;;;;;;;;;;;;;;;;;5016293;28;8333;-84
2022/09/17 00:18:15;;;;;;;;;;;;;;;;;;5016967;28;8320;-85
2022/09/17 00:20:42;;;;;;;;;;;;;;;;;;5015995;28;7009;-86
2022/09/17 00:23:08;;;;;;;;;;;;;;;;;;5016473;28;7117;-85
2022/09/17 00:25:38;;;;;;;;;;;;;;;;;;5016517;28;7208;-85
2022/09/17 00:28:04;;;;;;;;;;;;;;;;;;5016438;28;8416;-85
2022/09/17 00:30:30;;;;;;;;;;;;;;;;;;5016122;28;9289;-84
2022/09/17 00:32:56;;;;;;;;;;;;;;;;;;5016223;28;8609;-84
2022/09/17 00:35:23;;;;;;;;;;;;;;;;;;5015805;28;7097;-85
2022/09/17 00:37:48;;;;;;;;;;;;;;;;;;5015643;28;7229;-85
2022/09/17 00:40:14;;;;;;;;;;;;;;;;;;5015954;28;8414;-84
2022/09/17 00:42:39;;;;;;;;;;;;;;;;;;5015745;28;7130;-85
2022/09/17 00:45:05;;;;;;;;;;;;;;;;;;5015613;28;8365;-83
2022/09/17 00:47:34;;;;;;;;;;;;;;;;;;5015839;28;7000;-84
2022/09/17 00:50:03;;;;;;;;;;;;;;;;;;5015479;28;7027;-85
2022/09/17 00:52:33;;;;;;;;;;;;;;;;;;5015321;28;8505;-84
2022/09/17 00:55:12;;;;;;;;;;;;;;;;;;5015638;28;7032;-84
2022/09/17 00:57:39;;;;;;;;;;;;;;;;;;5015650;28;7457;-84
2022/09/17 01:00:06;;;;;;;;;;;;;;;;;;5015644;28;8311;-85
2022/09/17 01:02:33;;;;;;;;;;;;;;;;;;5015463;28;8443;-85
2022/09/17 01:04:58;;;;;;;;;;;;;;;;;;5015038;28;8405;-87
2022/09/17 01:07:23;;;;;;;;;;;;;;;;;;5015005;28;7140;-87
2022/09/17 01:09:57;;;;;;;;;;;;;;;;;;5031906;28;8378;-87
2022/09/17 01:12:31;;;;;;;;;;;;;;;;;;5015432;28;7141;-87
2022/09/17 01:15:17;;;;;;;;;;;;;;;;;;5031621;28;8457;-86
2022/09/17 01:18:07;;;;;;;;;;;;;;;;;;5014541;28;8395;-85
2022/09/17 01:20:39;;;;;;;;;;;;;;;;;;5014858;28;7023;-85
2022/09/17 01:23:04;;;;;;;;;;;;;;;;;;5031892;28;8553;-85
2022/09/17 01:25:30;;;;;;;;;;;;;;;;;;5031979;28;7062;-85
2022/09/17 01:27:55;;;;;;;;;;;;;;;;;;5032143;28;8503;-85
2022/09/17 01:30:33;;;;;;;;;;;;;;;;;;5031107;28;7124;-85
2022/09/17 01:33:01;;;;;;;;;;;;;;;;;;5031937;28;7138;-85
2022/09/17 01:35:42;;;;;;;;;;;;;;;;;;5030972;28;7339;-85
2022/09/17 01:38:28;;;;;;;;;;;;;;;;;;5031394;28;7049;-85
2022/09/17 01:41:06;;;;;;;;;;;;;;;;;;5014112;28;8418;-84
2022/09/17 01:43:35;;;;;;;;;;;;;;;;;;5014504;28;7420;-85
2022/09/17 01:46:07;;;;;;;;;;;;;;;;;;5031441;28;8461;-84
2022/09/17 01:48:37;;;;;;;;;;;;;;;;;;5015623;28;7049;-86
2022/09/17 01:51:06;;;;;;;;;;;;;;;;;;5014643;28;7032;-85
2022/09/17 01:53:38;;;;;;;;;;;;;;;;;;5014606;28;8421;-85
2022/09/17 01:56:07;;;;;;;;;;;;;;;;;;5014118;28;8483;-85
2022/09/17 01:58:37;;;;;;;;;;;;;;;;;;5014395;28;8954;-85
2022/09/17 02:01:06;;;;;;;;;;;;;;;;;;5014540;28;7446;-85
2022/09/17 02:04:01;;;;;;;;;;;;;;;;;;5014461;28;7488;-86
2022/09/17 02:06:32;;;;;;;;;;;;;;;;;;5001298;28;7189;-85
2022/09/17 02:09:16;;;;;;;;;;;;;;;;;;5014837;28;8304;-86
2022/09/17 02:11:46;;;;;;;;;;;;;;;;;;5014356;28;8697;-85
2022/09/17 02:14:16;;;;;;;;;;;;;;;;;;5014431;28;7065;-85
2022/09/17 02:16:51;;;;;;;;;;;;;;;;;;5015045;28;7175;-86
2022/09/17 02:19:24;;;;;;;;;;;;;;;;;;5014408;28;7046;-85
2022/09/17 02:21:52;;;;;;;;;;;;;;;;;;5014426;28;8138;-86
2022/09/17 02:24:30;;;;;;;;;;;;;;;;;;5030850;28;8510;-85
2022/09/17 02:27:25;;;;;;;;;;;;;;;;;;5030813;28;7191;-84
2022/09/17 02:29:50;;;;;;;;;;;;;;;;;;5001340;28;8421;-86
2022/09/17 02:32:16;;;;;;;;;;;;;;;;;;5014097;28;8378;-86
2022/09/17 02:34:42;;;;;;;;;;;;;;;;;;5016004;28;8483;-85
2022/09/17 02:37:08;;;;;;;;;;;;;;;;;;5014835;28;7114;-85
2022/09/17 02:39:33;;;;;;;;;;;;;;;;;;5014326;28;7620;-85
2022/09/17 02:42:14;;;;;;;;;;;;;;;;;;5013416;28;8591;-84
2022/09/17 02:44:40;;;;;;;;;;;;;;;;;;5014335;28;7009;-84
2022/09/17 02:47:05;;;;;;;;;;;;;;;;;;5029975;28;7169;-85
2022/09/17 02:49:40;;;;;;;;;;;;;;;;;;5030400;28;7010;-86
2022/09/17 02:52:08;;;;;;;;;;;;;;;;;;5030395;28;8481;-85
2022/09/17 02:54:42;;;;;;;;;;;;;;;;;;5030376;28;7035;-85
2022/09/17 02:57:19;;;;;;;;;;;;;;;;;;5013986;28;8392;-84
2022/09/17 02:59:52;;;;;;;;;;;;;;;;;;5014694;28;7169;-85
2022/09/17 03:02:23;;;;;;;;;;;;;;;;;;5013400;28;7037;-85
2022/09/17 03:04:50;;;;;;;;;;;;;;;;;;5014536;28;7117;-85
2022/09/17 03:07:17;;;;;;;;;;;;;;;;;;5013780;28;7052;-84
2022/09/17 03:09:42;;;;;;;;;;;;;;;;;;5014510;28;7086;-85
2022/09/17 03:12:09;;;;;;;;;;;;;;;;;;5013636;28;8562;-85
2022/09/17 03:14:35;;;;;;;;;;;;;;;;;;5013705;28;7179;-84
2022/09/17 03:17:00;;;;;;;;;;;;;;;;;;5014195;28;8490;-84
2022/09/17 03:19:26;;;;;;;;;;;;;;;;;;5013599;28;8671;-84
2022/09/17 03:21:52;;;;;;;;;;;;;;;;;;5014282;28;8620;-85
2022/09/17 03:24:18;;;;;;;;;;;;;;;;;;5013423;28;8751;-86
2022/09/17 03:26:46;;;;;;;;;;;;;;;;;;5013642;28;8364;-85
2022/09/17 03:29:12;;;;;;;;;;;;;;;;;;5013804;28;7040;-86
2022/09/17 03:31:38;;;;;;;;;;;;;;;;;;5014476;28;7260;-85
2022/09/17 03:34:04;;;;;;;;;;;;;;;;;;5013749;28;7029;-85
2022/09/17 03:36:29;;;;;;;;;;;;;;;;;;5014229;28;7435;-85
2022/09/17 03:38:56;;;;;;;;;;;;;;;;;;5013813;28;7226;-85
2022/09/17 03:41:21;;;;;;;;;;;;;;;;;;5017126;28;8561;-84
2022/09/17 03:43:47;;;;;;;;;;;;;;;;;;5016714;28;7030;-84
2022/09/17 03:46:13;;;;;;;;;;;;;;;;;;5016615;28;8396;-85
2022/09/17 03:48:38;;;;;;;;;;;;;;;;;;5016902;28;8322;-85
2022/09/17 03:51:05;;;;;;;;;;;;;;;;;;5017476;28;8380;-84
2022/09/17 03:53:30;;;;;;;;;;;;;;;;;;5016816;28;8406;-85
2022/09/17 03:56:00;;;;;;;;;;;;;;;;;;5016584;28;7162;-85
2022/09/17 03:58:27;;;;;;;;;;;;;;;;;;5016171;28;8753;-85
2022/09/17 04:00:55;;;;;;;;;;;;;;;;;;5016133;28;7099;-84
2022/09/17 04:03:21;;;;;;;;;;;;;;;;;;5016445;28;8292;-85
2022/09/17 04:05:46;;;;;;;;;;;;;;;;;;5016467;28;8278;-85
2022/09/17 04:08:12;;;;;;;;;;;;;;;;;;5016280;28;8476;-84
2022/09/17 04:10:38;;;;;;;;;;;;;;;;;;5016599;28;8938;-85
2022/09/17 04:13:03;;;;;;;;;;;;;;;;;;5016841;28;8400;-86
2022/09/17 04:15:29;;;;;;;;;;;;;;;;;;5016555;28;8488;-85
2022/09/17 04:17:56;;;;;;;;;;;;;;;;;;5016722;28;8394;-85
2022/09/17 04:20:22;;;;;;;;;;;;;;;;;;5016577;28;7100;-84
2022/09/17 04:22:48;;;;;;;;;;;;;;;;;;5016776;28;7182;-85
2022/09/17 04:25:14;;;;;;;;;;;;;;;;;;5016622;28;7154;-85
2022/09/17 04:27:39;;;;;;;;;;;;;;;;;;5016075;28;7013;-85
2022/09/17 04:30:05;;;;;;;;;;;;;;;;;;5016119;28;7010;-85
2022/09/17 04:32:31;;;;;;;;;;;;;;;;;;5015867;28;8483;-85
2022/09/17 04:34:56;;;;;;;;;;;;;;;;;;5016006;28;7420;-85
2022/09/17 04:37:24;;;;;;;;;;;;;;;;;;5016412;28;7438;-86
2022/09/17 04:39:50;;;;;;;;;;;;;;;;;;5016232;28;7106;-87
2022/09/17 04:42:16;;;;;;;;;;;;;;;;;;5015420;28;8261;-88
2022/09/17 04:44:42;;;;;;;;;;;;;;;;;;5015676;28;8804;-87
2022/09/17 04:47:07;;;;;;;;;;;;;;;;;;5016625;28;7035;-86
2022/09/17 04:49:33;;;;;;;;;;;;;;;;;;5016097;28;7022;-87
2022/09/17 04:51:58;;;;;;;;;;;;;;;;;;5016093;28;8378;-86
2022/09/17 04:54:24;;;;;;;;;;;;;;;;;;5015614;28;8671;-86
2022/09/17 04:56:50;;;;;;;;;;;;;;;;;;5015919;28;8722;-86
2022/09/17 04:59:16;;;;;;;;;;;;;;;;;;5015271;28;7177;-87
2022/09/17 05:01:42;;;;;;;;;;;;;;;;;;5015943;28;7217;-84
2022/09/17 05:04:08;;;;;;;;;;;;;;;;;;5015537;28;7151;-84
2022/09/17 05:06:34;;;;;;;;;;;;;;;;;;5015864;28;8604;-85
2022/09/17 05:09:00;;;;;;;;;;;;;;;;;;5015773;28;6968;-84
2022/09/17 05:11:27;;;;;;;;;;;;;;;;;;5015636;28;7162;-84
2022/09/17 05:13:53;;;;;;;;;;;;;;;;;;5015309;28;7003;-85
2022/09/17 05:16:19;;;;;;;;;;;;;;;;;;5015334;28;8470;-86
2022/09/17 05:18:44;;;;;;;;;;;;;;;;;;5015305;28;8693;-86
2022/09/17 05:21:10;;;;;;;;;;;;;;;;;;5015495;28;7234;-84
2022/09/17 05:23:36;;;;;;;;;;;;;;;;;;5014994;28;8548;-85
2022/09/17 05:26:01;;;;;;;;;;;;;;;;;;5015263;28;7152;-85
2022/09/17 05:28:28;;;;;;;;;;;;;;;;;;5015015;28;7172;-84
2022/09/17 05:30:53;;;;;;;;;;;;;;;;;;5015046;28;8398;-85
2022/09/17 05:33:19;;;;;;;;;;;;;;;;;;5014855;28;7374;-85
2022/09/17 05:35:46;;;;;;;;;;;;;;;;;;5014521;28;7043;-85
2022/09/17 05:38:11;;;;;;;;;;;;;;;;;;5014955;28;8428;-85
2022/09/17 05:40:37;;;;;;;;;;;;;;;;;;5015374;28;8343;-86
2022/09/17 05:43:06;;;;;;;;;;;;;;;;;;5014879;28;7039;-85
2022/09/17 05:45:33;;;;;;;;;;;;;;;;;;5014728;28;7185;-85
2022/09/17 05:48:01;;;;;;;;;;;;;;;;;;5015111;28;7053;-85
2022/09/17 05:50:28;;;;;;;;;;;;;;;;;;5031235;28;8428;-84
2022/09/17 05:52:54;;;;;;;;;;;;;;;;;;5014375;28;7358;-84
2022/09/17 05:55:21;;;;;;;;;;;;;;;;;;5014454;28;8432;-84
2022/09/17 05:57:47;;;;;;;;;;;;;;;;;;5015086;28;8416;-85
2022/09/17 06:00:13;;;;;;;;;;;;;;;;;;5014724;28;7163;-85
2022/09/17 06:02:39;;;;;;;;;;;;;;;;;;5013315;28;7142;-84
2022/09/17 06:05:04;;;;;;;;;;;;;;;;;;5014243;28;7365;-84
2022/09/17 06:07:30;;;;;;;;;;;;;;;;;;5014397;28;8738;-85
2022/09/17 06:09:55;;;;;;;;;;;;;;;;;;5014178;28;7347;-85
2022/09/17 06:12:21;;;;;;;;;;;;;;;;;;5014937;28;7151;-86
2022/09/17 06:14:48;;;;;;;;;;;;;;;;;;5014157;28;8432;-85
2022/09/17 06:17:13;;;;;;;;;;;;;;;;;;5014193;28;7031;-86
2022/09/17 06:19:39;;;;;;;;;;;;;;;;;;5030592;28;7158;-85
2022/09/17 06:22:04;;;;;;;;;;;;;;;;;;5013963;28;8425;-85
2022/09/17 06:24:31;;;;;;;;;;;;;;;;;;5013854;28;7333;-85
2022/09/17 06:26:57;;;;;;;;;;;;;;;;;;5014127;28;7170;-85
2022/09/17 06:29:22;;;;;;;;;;;;;;;;;;5013943;28;7001;-87
2022/09/17 06:31:48;;;;;;;;;;;;;;;;;;5014056;28;8357;-79
2022/09/17 06:34:14;;;;;;;;;;;;;;;;;;5013753;28;8421;-84
2022/09/17 06:36:39;;;;;;;;;;;;;;;;;;5014351;28;7312;-85
2022/09/17 06:39:05;;;;;;;;;;;;;;;;;;5014396;28;7045;-83
2022/09/17 06:41:30;;;;;;;;;;;;;;;;;;5013965;28;8399;-84
2022/09/17 06:43:56;;;;;;;;;;;;;;;;;;5014395;28;7126;-86
2022/09/17 06:46:21;;;;;;;;;;;;;;;;;;5013826;28;8414;-85
2022/09/17 06:48:47;;;;;;;;;;;;;;;;;;5013854;28;7212;-86
2022/09/17 06:51:13;;;;;;;;;;;;;;;;;;5013650;28;7040;-84
2022/09/17 06:53:39;;;;;;;;;;;;;;;;;;5013671;28;7081;-85
2022/09/17 06:56:07;;;;;;;;;;;;;;;;;;5013772;28;7203;-85
2022/09/17 06:58:35;;;;;;;;;;;;;;;;;;5013700;28;7055;-86
2022/09/17 07:01:02;;;;;;;;;;;;;;;;;;5013776;28;7057;-85
2022/09/17 07:03:29;;;;;;;;;;;;;;;;;;5013664;28;8665;-85
2022/09/17 07:05:56;;;;;;;;;;;;;;;;;;5013843;28;7183;-86
2022/09/17 07:08:21;;;;;;;;;;;;;;;;;;5013502;28;7028;-86
2022/09/17 07:10:47;;;;;;;;;;;;;;;;;;5013541;28;7038;-86
2022/09/17 07:13:13;;;;;;;;;;;;;;;;;;5013865;28;8373;-86
2022/09/17 07:15:38;;;;;;;;;;;;;;;;;;5016535;28;7245;-87
2022/09/17 07:18:08;;;;;;;;;;;;;;;;;;5017350;28;8345;-87
2022/09/17 07:20:38;;;;;;;;;;;;;;;;;;5017096;28;7172;-87
2022/09/17 07:23:03;;;;;;;;;;;;;;;;;;5017371;28;7184;-87
2022/09/17 07:25:28;;;;;;;;;;;;;;;;;;5017583;28;8510;-86
2022/09/17 07:27:55;;;;;;;;;;;;;;;;;;5033749;28;8889;-87
2022/09/17 07:30:21;;;;;;;;;;;;;;;;;;5034137;28;8425;-86
2022/09/17 07:32:47;;;;;;;;;;;;;;;;;;5034078;28;7187;-87
2022/09/17 07:35:12;;;;;;;;;;;;;;;;;;5017129;28;6988;-87
2022/09/17 07:37:38;;;;;;;;;;;;;;;;;;5017602;28;7135;-87
2022/09/17 07:40:06;;;;;;;;;;;;;;;;;;5018408;28;7166;-85
2022/09/17 07:42:32;;;;;;;;;;;;;;;;;;5016665;28;8336;-86
2022/09/17 07:44:58;;;;;;;;;;;;;;;;;;5017009;28;7174;-86
2022/09/17 07:47:23;;;;;;;;;;;;;;;;;;5017100;28;9380;-86
2022/09/17 07:49:49;;;;;;;;;;;;;;;;;;5016986;28;8582;-86
2022/09/17 07:52:15;;;;;;;;;;;;;;;;;;5016819;28;7329;-86
2022/09/17 07:54:40;;;;;;;;;;;;;;;;;;5016736;28;6946;-87
2022/09/17 07:57:05;;;;;;;;;;;;;;;;;;5016254;28;8561;-83
2022/09/17 07:59:31;;;;;;;;;;;;;;;;;;5015459;28;7017;-84
2022/09/17 08:01:56;;;;;;;;;;;;;;;;;;5015575;28;8412;-84
2022/09/17 08:04:22;;;;;;;;;;;;;;;;;;5016233;28;8475;-86
2022/09/17 08:06:48;;;;;;;;;;;;;;;;;;5016383;28;7221;-87
2022/09/17 08:09:14;;;;;;;;;;;;;;;;;;5016468;28;7335;-86
2022/09/17 08:11:41;;;;;;;;;;;;;;;;;;5016337;28;8573;-85
2022/09/17 08:14:09;;;;;;;;;;;;;;;;;;5015322;28;7165;-84
2022/09/17 08:16:35;;;;;;;;;;;;;;;;;;5014950;28;7177;-79
2022/09/17 08:19:00;;;;;;;;;;;;;;;;;;5014785;28;8410;-84
2022/09/17 08:21:26;;;;;;;;;;;;;;;;;;5015151;28;7123;-85
2022/09/17 08:23:52;;;;;;;;;;;;;;;;;;5016481;28;7421;-83
2022/09/17 08:26:22;;;;;;;;;;;;;;;;;;5016337;28;8562;-87
2022/09/17 08:28:49;;;;;;;;;;;;;;;;;;5017962;28;7159;-86
2022/09/17 08:31:16;;;;;;;;;;;;;;;;;;5017978;28;8876;-84
2022/09/17 08:33:42;;;;;;;;;;;;;;;;;;5018856;28;8401;-87
2022/09/17 08:36:09;;;;;;;;;;;;;;;;;;5020805;28;7140;-84
2022/09/17 08:38:36;;;;;;;;;;;;;;;;;;5021330;28;7043;-84
2022/09/17 08:41:11;;;;;;;;;;;;;;;;;;5020027;28;7380;-83
2022/09/17 08:43:37;;;;;;;;;;;;;;;;;;5036885;28;8468;-88
2022/09/17 08:46:02;;;;;;;;;;;;;;;;;;5035185;28;8311;-88
2022/09/17 08:48:36;;;;;;;;;;;;;;;;;;5033399;28;8394;-86
2022/09/17 08:51:12;;;;;;;;;;;;;;;;;;5033609;28;7025;-87
2022/09/17 08:53:57;;;;;;;;;;;;;;;;;;5032762;28;7049;-86
2022/09/17 08:56:25;;;;;;;;;;;;;;;;;;5034872;28;8426;-89
2022/09/17 08:58:58;;;;;;;;;;;;;;;;;;5015637;28;7223;-88
2022/09/17 09:01:33;;;;;;;;;;;;;;;;;;5033483;28;7400;-87
2022/09/17 09:04:11;;;;;;;;;;;;;;;;;;5032329;28;7086;-85
2022/09/17 09:06:45;;;;;;;;;;;;;;;;;;5031408;28;7264;-87
2022/09/17 09:09:14;;;;;;;;;;;;;;;;;;5030820;28;7254;-86
2022/09/17 09:11:41;;;;;;;;;;;;;;;;;;5030953;28;8402;-86
2022/09/17 09:14:19;;;;;;;;;;;;;;;;;;5030986;28;8420;-88
2022/09/17 09:16:46;;;;;;;;;;;;;;;;;;5031665;28;7266;-87
2022/09/17 09:19:26;;;;;;;;;;;;;;;;;;5031615;28;7242;-87
2022/09/17 09:22:12;;;;;;;;;;;;;;;;;;5031406;28;8337;-88
2022/09/17 09:24:46;;;;;;;;;;;;;;;;;;5031503;28;8529;-88
2022/09/17 09:27:17;;;;;;;;;;;;;;;;;;5031563;28;6842;-87
2022/09/17 09:29:55;;;;;;;;;;;;;;;;;;5031577;28;8459;-87
2022/09/17 09:32:30;;;;;;;;;;;;;;;;;;5032272;28;7396;-85
2022/09/17 09:35:02;;;;;;;;;;;;;;;;;;5031676;28;7136;-88
2022/09/17 09:37:32;;;;;;;;;;;;;;;;;;5031069;28;8546;-85
2022/09/17 09:40:17;;;;;;;;;;;;;;;;;;5031291;28;7268;-88
2022/09/17 09:42:44;;;;;;;;;;;;;;;;;;5030653;28;7061;-87
2022/09/17 09:45:26;;;;;;;;;;;;;;;;;;5014944;28;7231;-87
2022/09/17 09:47:52;;;;;;;;;;;;;;;;;;5033268;28;7396;-84
2022/09/17 09:50:20;;;;;;;;;;;;;;;;;;5032186;28;8394;-80
2022/09/17 09:52:53;;;;;;;;;;;;;;;;;;5031373;28;7042;-88
2022/09/17 09:55:37;;;;;;;;;;;;;;;;;;5031890;28;7125;-87
2022/09/17 09:58:05;;;;;;;;;;;;;;;;;;5031149;28;8332;-87
2022/09/17 10:00:35;;;;;;;;;;;;;;;;;;5031055;28;7496;-86
2022/09/17 10:03:13;;;;;;;;;;;;;;;;;;5031376;28;8290;-86
2022/09/17 10:05:39;;;;;;;;;;;;;;;;;;5031720;28;7149;-88
2022/09/17 10:08:15;;;;;;;;;;;;;;;;;;5030916;28;7281;-87
2022/09/17 10:10:58;;;;;;;;;;;;;;;;;;5031512;28;8300;-86
2022/09/17 10:13:24;;;;;;;;;;;;;;;;;;5031047;28;7151;-86
2022/09/17 10:15:50;;;;;;;;;;;;;;;;;;5031390;28;8636;-87
2022/09/17 10:18:20;;;;;;;;;;;;;;;;;;5030898;28;7194;-88
2022/09/17 10:20:56;;;;;;;;;;;;;;;;;;5030408;28;8417;-86
2022/09/17 10:23:24;;;;;;;;;;;;;;;;;;5030436;28;8472;-87
2022/09/17 10:25:52;;;;;;;;;;;;;;;;;;5030940;28;8327;-87
2022/09/17 10:28:33;;;;;;;;;;;;;;;;;;5030449;28;8283;-88
2022/09/17 10:31:03;;;;;;;;;;;;;;;;;;5030672;28;7131;-87
2022/09/17 10:33:30;;;;;;;;;;;;;;;;;;5030936;28;7026;-87
2022/09/17 10:35:57;;;;;;;;;;;;;;;;;;5030728;28;6995;-88
2022/09/17 10:38:42;;;;;;;;;;;;;;;;;;5030314;28;7334;-88
2022/09/17 10:41:11;;;;;;;;;;;;;;;;;;5030842;28;8706;-87
2022/09/17 10:43:36;;;;;;;;;;;;;;;;;;5031265;28;7349;-88
2022/09/17 10:46:03;;;;;;;;;;;;;;;;;;5031279;28;7153;-88
2022/09/17 10:48:36;;;;;;;;;;;;;;;;;;5031958;28;8424;-86
2022/09/17 10:51:05;;;;;;;;;;;;;;;;;;5034255;28;8473;-85
2022/09/17 10:53:39;;;;;;;;;;;;;;;;;;5035408;28;8496;-87
2022/09/17 10:56:15;;;;;;;;;;;;;;;;;;5038387;28;7063;-85
2022/09/17 10:59:03;;;;;;;;;;;;;;;;;;5037838;28;6846;-87
2022/09/17 11:01:29;;;;;;;;;;;;;;;;;;5037054;28;7156;-84
2022/09/17 11:04:01;;;;;;;;;;;;;;;;;;5037265;28;7411;-85
2022/09/17 11:06:27;;;;;;;;;;;;;;;;;;5037067;28;7046;-88
2022/09/17 11:09:02;;;;;;;;;;;;;;;;;;5036307;28;8606;-87
2022/09/17 11:11:37;;;;;;;;;;;;;;;;;;5038022;28;8546;-87
2022/09/17 11:14:12;;;;;;;;;;;;;;;;;;5038990;28;8853;-88
2022/09/17 11:16:49;;;;;;;;;;;;;;;;;;5037829;28;8418;-87
2022/09/17 11:19:21;;;;;;;;;;;;;;;;;;5039432;28;7110;-81
2022/09/17 11:21:55;;;;;;;;;;;;;;;;;;5036175;28;8454;-84
2022/09/17 11:24:39;;;;;;;;;;;;;;;;;;5037035;28;8453;-90
2022/09/17 11:27:04;;;;;;;;;;;;;;;;;;5036434;28;7256;-78
2022/09/17 11:29:46;;;;;;;;;;;;;;;;;;5042936;28;7241;-78
2022/09/17 11:32:11;;;;;;;;;;;;;;;;;;5044750;28;8703;-79
2022/09/17 11:34:42;;;;;;;;;;;;;;;;;;5040542;28;8373;-85
2022/09/17 11:37:18;;;;;;;;;;;;;;;;;;5041700;28;8741;-83
2022/09/17 11:39:53;;;;;;;;;;;;;;;;;;5040550;28;7313;-83
2022/09/17 11:42:23;;;;;;;;;;;;;;;;;;5044061;28;8624;-82
2022/09/17 11:45:01;;;;;;;;;;;;;;;;;;5044271;28;8268;-80
2022/09/17 11:47:35;;;;;;;;;;;;;;;;;;5044172;28;7042;-79
2022/09/17 11:50:16;;;;;;;;;;;;;;;;;;5042691;28;8871;-81
2022/09/17 11:52:56;;;;;;;;;;;;;;;;;;5044487;28;7345;-80
2022/09/17 11:55:33;;;;;;;;;;;;;;;;;;5044256;28;8400;-81
2022/09/17 11:58:02;;;;;;;;;;;;;;;;;;5043274;28;7017;-81
2022/09/17 12:00:30;;;;;;;;;;;;;;;;;;5037428;28;8414;-87
2022/09/17 12:03:05;;;;;;;;;;;;;;;;;;5044138;28;7504;-79
2022/09/17 12:05:49;;;;;;;;;;;;;;;;;;5042961;28;8347;-81
2022/09/17 12:08:25;;;;;;;;;;;;;;;;;;5043483;28;8769;-83
2022/09/17 12:11:06;;;;;;;;;;;;;;;;;;5043859;28;6975;-79
2022/09/17 12:13:44;;;;;;;;;;;;;;;;;;5043699;28;7034;-81
2022/09/17 12:16:19;;;;;;;;;;;;;;;;;;5042712;28;8317;-84
2022/09/17 12:18:50;;;;;;;;;;;;;;;;;;5041432;28;7009;-80
2022/09/17 12:21:21;;;;;;;;;;;;;;;;;;5042065;28;7395;-82
2022/09/17 12:23:57;;;;;;;;;;;;;;;;;;5041348;28;8418;-84
2022/09/17 12:26:33;;;;;;;;;;;;;;;;;;5041269;28;9345;-82
2022/09/17 12:29:11;;;;;;;;;;;;;;;;;;5025041;28;7115;-80
2022/09/17 12:31:51;;;;;;;;;;;;;;;;;;5041299;28;8593;-86
2022/09/17 12:34:32;;;;;;;;;;;;;;;;;;5022086;28;7030;-83
2022/09/17 12:37:07;;;;;;;;;;;;;;;;;;5039611;28;7178;-81
2022/09/17 12:39:59;;;;;;;;;;;;;;;;;;5022438;28;7030;-86
2022/09/17 12:42:28;;;;;;;;;;;;;;;;;;5017071;28;8305;-87
2022/09/17 12:44:54;;;;;;;;;;;;;;;;;;5037199;28;7397;-84
2022/09/17 12:47:38;;;;;;;;;;;;;;;;;;5039564;28;8402;-86
2022/09/17 12:50:19;;;;;;;;;;;;;;;;;;5022377;28;7117;-86
2022/09/17 12:52:45;;;;;;;;;;;;;;;;;;5021708;28;7352;-83
2022/09/17 12:55:16;;;;;;;;;;;;;;;;;;5038022;28;7184;-82
2022/09/17 12:57:45;;;;;;;;;;;;;;;;;;5036437;28;7026;-86
2022/09/17 13:00:13;;;;;;;;;;;;;;;;;;5037669;28;7240;-87
2022/09/17 13:02:54;;;;;;;;;;;;;;;;;;5019152;28;7195;-85
2022/09/17 13:05:23;;;;;;;;;;;;;;;;;;5020322;28;8849;-87
2022/09/17 13:07:51;;;;;;;;;;;;;;;;;;5040027;28;7230;-84
2022/09/17 13:10:29;;;;;;;;;;;;;;;;;;5041227;28;7033;-85
2022/09/17 13:13:03;;;;;;;;;;;;;;;;;;5039491;28;8427;-86
2022/09/17 13:15:37;;;;;;;;;;;;;;;;;;5022734;28;7043;-85
2022/09/17 13:18:12;;;;;;;;;;;;;;;;;;5038089;28;8442;-84
2022/09/17 13:20:46;;;;;;;;;;;;;;;;;;5037242;28;7345;-86
2022/09/17 13:23:11;;;;;;;;;;;;;;;;;;5026211;28;8739;-79
2022/09/17 13:25:50;;;;;;;;;;;;;;;;;;5026240;28;7134;-82
2022/09/17 13:28:16;;;;;;;;;;;;;;;;;;5024739;28;7207;-84
2022/09/17 13:31:10;;;;;;;;;;;;;;;;;;5021879;28;8511;-88
2022/09/17 13:33:49;;;;;;;;;;;;;;;;;;5012869;28;7040;-87
2022/09/17 13:36:33;;;;;;;;;;;;;;;;;;5031743;28;7443;-87
2022/09/17 13:39:03;;;;;;;;;;;;;;;;;;5032080;28;7017;-87
2022/09/17 13:41:33;;;;;;;;;;;;;;;;;;5022357;28;8345;-84
2022/09/17 13:43:59;;;;;;;;;;;;;;;;;;5023281;28;8388;-81
2022/09/17 13:46:27;;;;;;;;;;;;;;;;;;5023128;28;7278;-80
2022/09/17 13:48:57;;;;;;;;;;;;;;;;;;5022216;28;7259;-85
2022/09/17 13:51:29;;;;;;;;;;;;;;;;;;5024882;28;8540;-80
2022/09/17 13:53:56;;;;;;;;;;;;;;;;;;5041557;28;8416;-83
2022/09/17 13:56:28;;;;;;;;;;;;;;;;;;5024853;28;7056;-85
2022/09/17 13:58:53;;;;;;;;;;;;;;;;;;5040614;28;8789;-85
2022/09/17 14:01:39;;;;;;;;;;;;;;;;;;5023463;28;8718;-83
2022/09/17 14:04:05;;;;;;;;;;;;;;;;;;5024874;28;7029;-79
2022/09/17 14:06:33;;;;;;;;;;;;;;;;;;5025289;28;7484;-80
2022/09/17 14:09:01;;;;;;;;;;;;;;;;;;5042975;28;7108;-83
2022/09/17 14:11:31;;;;;;;;;;;;;;;;;;5025813;28;8598;-79
2022/09/17 14:14:16;;;;;;;;;;;;;;;;;;5040826;28;7160;-82
2022/09/17 14:16:42;;;;;;;;;;;;;;;;;;5024991;28;6967;-80
2022/09/17 14:19:26;;;;;;;;;;;;;;;;;;5041434;28;8443;-85
2022/09/17 14:22:04;;;;;;;;;;;;;;;;;;5042278;28;7128;-79
2022/09/17 14:24:39;;;;;;;;;;;;;;;;;;5041254;28;7520;-81
2022/09/17 14:27:15;;;;;;;;;;;;;;;;;;5023850;28;7116;-80
2022/09/17 14:29:51;;;;;;;;;;;;;;;;;;5024412;28;8413;-81
2022/09/17 14:32:31;;;;;;;;;;;;;;;;;;5023014;28;8410;-83
2022/09/17 14:34:59;;;;;;;;;;;;;;;;;;5023504;28;8899;-83
2022/09/17 14:37:27;;;;;;;;;;;;;;;;;;5022549;28;8429;-83
2022/09/17 14:39:52;;;;;;;;;;;;;;;;;;5025248;28;6943;-81
2022/09/17 14:42:22;;;;;;;;;;;;;;;;;;5025477;28;8443;-80
2022/09/17 14:44:54;;;;;;;;;;;;;;;;;;5026296;28;7167;-79
2022/09/17 14:47:21;;;;;;;;;;;;;;;;;;5043014;28;8477;-79
2022/09/17 14:49:47;;;;;;;;;;;;;;;;;;5042690;28;7153;-79
2022/09/17 14:52:32;;;;;;;;;;;;;;;;;;5040733;28;6835;-86
2022/09/17 14:55:09;;;;;;;;;;;;;;;;;;5038478;28;7155;-83
2022/09/17 14:57:36;;;;;;;;;;;;;;;;;;5039636;28;8481;-83
2022/09/17 15:00:03;;;;;;;;;;;;;;;;;;5021563;28;8355;-85
2022/09/17 15:02:42;;;;;;;;;;;;;;;;;;5026035;28;8511;-81
2022/09/17 15:05:20;;;;;;;;;;;;;;;;;;5025709;28;6839;-81
2022/09/17 15:07:47;;;;;;;;;;;;;;;;;;5025310;28;8379;-82
2022/09/17 15:10:14;;;;;;;;;;;;;;;;;;5041152;28;8437;-81
2022/09/17 15:12:42;;;;;;;;;;;;;;;;;;5025805;28;8583;-81
2022/09/17 15:15:26;;;;;;;;;;;;;;;;;;5042210;28;8728;-81
2022/09/17 15:17:52;;;;;;;;;;;;;;;;;;5036574;28;8380;-80
2022/09/17 15:20:30;;;;;;;;;;;;;;;;;;5026105;28;8452;-80
2022/09/17 15:22:55;;;;;;;;;;;;;;;;;;5025039;28;7048;-85
2022/09/17 15:25:25;;;;;;;;;;;;;;;;;;5041822;28;7147;-81
2022/09/17 15:27:55;;;;;;;;;;;;;;;;;;5025362;28;7355;-81
2022/09/17 15:30:25;;;;;;;;;;;;;;;;;;5025801;28;6984;-80
2022/09/17 15:32:52;;;;;;;;;;;;;;;;;;5025556;28;8391;-81
2022/09/17 15:35:26;;;;;;;;;;;;;;;;;;5026319;28;7118;-82
2022/09/17 15:38:12;;;;;;;;;;;;;;;;;;5027518;28;7059;-81
2022/09/17 15:40:41;;;;;;;;;;;;;;;;;;5026373;28;8572;-82
2022/09/17 15:43:17;;;;;;;;;;;;;;;;;;5026578;28;6806;-81
2022/09/17 15:45:43;;;;;;;;;;;;;;;;;;5028701;28;8402;-82
2022/09/17 15:48:27;;;;;;;;;;;;;;;;;;5027388;28;7171;-82
2022/09/17 15:50:54;;;;;;;;;;;;;;;;;;5044319;28;7029;-81
2022/09/17 15:53:38;;;;;;;;;;;;;;;;;;5028807;28;8416;-81
2022/09/17 15:56:06;;;;;;;;;;;;;;;;;;5029606;28;7427;-80
2022/09/17 15:58:35;;;;;;;;;;;;;;;;;;5045708;28;7148;-80
2022/09/17 16:01:10;;;;;;;;;;;;;;;;;;5045962;28;8333;-80
2022/09/17 16:03:38;;;;;;;;;;;;;;;;;;5045566;28;8483;-82
2022/09/17 16:06:23;;;;;;;;;;;;;;;;;;5045534;28;7126;-82
2022/09/17 16:08:51;;;;;;;;;;;;;;;;;;5045369;28;7378;-81
2022/09/17 16:11:19;;;;;;;;;;;;;;;;;;5029178;28;7144;-81
2022/09/17 16:13:45;;;;;;;;;;;;;;;;;;5028772;28;7023;-80
2022/09/17 16:16:16;;;;;;;;;;;;;;;;;;5028775;28;7151;-80
2022/09/17 16:18:43;;;;;;;;;;;;;;;;;;5029123;28;7277;-80
2022/09/17 16:21:16;;;;;;;;;;;;;;;;;;5028659;28;7145;-81
2022/09/17 16:23:42;;;;;;;;;;;;;;;;;;5027948;28;8772;-81
2022/09/17 16:26:28;;;;;;;;;;;;;;;;;;5028833;28;8703;-80
2022/09/17 16:28:58;;;;;;;;;;;;;;;;;;5028640;28;7004;-81
2022/09/17 16:31:25;;;;;;;;;;;;;;;;;;5028580;28;8449;-80
2022/09/17 16:33:50;;;;;;;;;;;;;;;;;;5027933;28;7671;-81
2022/09/17 16:36:17;;;;;;;;;;;;;;;;;;5028066;28;7118;-82
2022/09/17 16:38:42;;;;;;;;;;;;;;;;;;5027818;28;8767;-80
2022/09/17 16:41:07;;;;;;;;;;;;;;;;;;5027723;28;8392;-81
2022/09/17 16:43:34;;;;;;;;;;;;;;;;;;5028069;28;7193;-81
2022/09/17 16:46:01;;;;;;;;;;;;;;;;;;5027602;28;7047;-80
2022/09/17 16:48:26;;;;;;;;;;;;;;;;;;5027792;28;8413;-80
2022/09/17 16:50:52;;;;;;;;;;;;;;;;;;5027859;28;8398;-80
2022/09/17 16:53:17;;;;;;;;;;;;;;;;;;5027947;28;7395;-81
2022/09/17 16:55:43;;;;;;;;;;;;;;;;;;5027856;28;7128;-81
2022/09/17 16:58:08;;;;;;;;;;;;;;;;;;5027902;28;8555;-81
2022/09/17 17:00:35;;;;;;;;;;;;;;;;;;5028575;28;7104;-82
2022/09/17 17:03:03;;;;;;;;;;;;;;;;;;5027864;28;6912;-82
2022/09/17 17:05:29;;;;;;;;;;;;;;;;;;5028050;28;8516;-82
2022/09/17 17:07:55;;;;;;;;;;;;;;;;;;5027595;28;7481;-82
2022/09/17 17:10:22;;;;;;;;;;;;;;;;;;5027794;28;7151;-81
2022/09/17 17:12:48;;;;;;;;;;;;;;;;;;5027537;28;7025;-81
2022/09/17 17:15:14;;;;;;;;;;;;;;;;;;5027205;28;8326;-80
2022/09/17 17:17:39;;;;;;;;;;;;;;;;;;5027583;28;8335;-81
2022/09/17 17:20:09;;;;;;;;;;;;;;;;;;5028605;28;7098;-80
2022/09/17 17:22:35;;;;;;;;;;;;;;;;;;5027235;28;7021;-81